createdAt,value
2022-10-29T00:04:22.777Z,-144.00
2022-10-29T00:09:30.053Z,-108.00
2022-10-29T00:14:37.255Z,-108.00
2022-10-29T00:19:44.488Z,-108.00
2022-10-29T00:24:51.804Z,-108.00
2022-10-29T00:29:59.029Z,-108.00
2022-10-29T00:35:06.263Z,-72.00
2022-10-29T00:40:13.483Z,-108.00
2022-10-29T00:45:20.667Z,-108.00
2022-10-29T00:50:27.830Z,-108.00
2022-10-29T00:55:35.110Z,-108.00
2022-10-29T01:00:42.296Z,-108.00
2022-10-29T01:05:49.491Z,-108.00
2022-10-29T01:10:56.724Z,-108.00
2022-10-29T01:16:03.909Z,-108.00
2022-10-29T01:21:11.047Z,-108.00
2022-10-29T01:26:18.302Z,-108.00
2022-10-29T01:31:25.501Z,-108.00
2022-10-29T01:36:32.742Z,-108.00
2022-10-29T01:41:39.932Z,-108.00
2022-10-29T01:46:47.103Z,-108.00
2022-10-29T01:51:54.318Z,-144.00
2022-10-29T01:57:01.557Z,-108.00
2022-10-29T02:02:08.723Z,-108.00
2022-10-29T02:07:15.839Z,-108.00
2022-10-29T02:12:23.087Z,-108.00
2022-10-29T02:17:30.283Z,-108.00
2022-10-29T02:22:37.560Z,-144.00
2022-10-29T02:27:44.776Z,-108.00
2022-10-29T02:32:51.980Z,-108.00
2022-10-29T02:37:59.213Z,-108.00
2022-10-29T02:43:06.584Z,-144.00
2022-10-29T02:48:13.709Z,-108.00
2022-10-29T02:53:20.962Z,-144.00
2022-10-29T02:58:28.176Z,-108.00
2022-10-29T03:03:35.369Z,-108.00
2022-10-29T03:08:42.566Z,-108.00
2022-10-29T03:13:49.816Z,-144.00
2022-10-29T03:18:56.987Z,-108.00
2022-10-29T03:24:04.219Z,-108.00
2022-10-29T03:29:11.521Z,-108.00
2022-10-29T03:34:18.726Z,-108.00
2022-10-29T03:39:25.931Z,-108.00
2022-10-29T03:44:33.193Z,-108.00
2022-10-29T03:49:40.424Z,-108.00
2022-10-29T03:54:47.621Z,-108.00
2022-10-29T03:59:54.887Z,-144.00
2022-10-29T04:05:02.108Z,-108.00
2022-10-29T04:10:09.293Z,-144.00
2022-10-29T04:15:16.545Z,-108.00
2022-10-29T04:20:45.392Z,-108.00
2022-10-29T04:30:39.402Z,-108.00
2022-10-29T04:35:46.609Z,-108.00
2022-10-29T04:40:53.836Z,-144.00
2022-10-29T04:46:01.143Z,-144.00
2022-10-29T04:51:08.276Z,-108.00
2022-10-29T04:56:15.429Z,-72.00
2022-10-29T05:01:22.858Z,-108.00
2022-10-29T05:06:29.861Z,-108.00
2022-10-29T05:11:37.051Z,-108.00
2022-10-29T05:16:44.320Z,-108.00
2022-10-29T05:21:51.460Z,-108.00
2022-10-29T05:26:58.684Z,-144.00
2022-10-29T05:32:05.879Z,-108.00
2022-10-29T05:37:13.097Z,-108.00
2022-10-29T05:42:20.275Z,-108.00
2022-10-29T05:47:27.572Z,-108.00
2022-10-29T05:52:34.792Z,-108.00
2022-10-29T05:57:41.987Z,-108.00
2022-10-29T06:02:49.359Z,-108.00
2022-10-29T06:07:56.703Z,-72.00
2022-10-29T06:13:03.659Z,-108.00
2022-10-29T06:18:10.933Z,-108.00
2022-10-29T06:23:18.118Z,-108.00
2022-10-29T06:28:28.061Z,5364.00
2022-10-29T06:33:32.508Z,5976.00
2022-10-29T06:38:39.695Z,6804.00
2022-10-29T06:43:46.965Z,7740.00
2022-10-29T06:48:54.202Z,8712.00
2022-10-29T06:54:01.425Z,10116.00
2022-10-29T06:59:08.628Z,10476.00
2022-10-29T07:04:15.895Z,10908.00
2022-10-29T07:09:23.099Z,11196.00
2022-10-29T07:14:30.271Z,11376.00
2022-10-29T07:19:37.506Z,11484.00
2022-10-29T07:24:44.677Z,11664.00
2022-10-29T07:29:51.839Z,11736.00
2022-10-29T07:34:59.030Z,12060.00
2022-10-29T07:40:06.200Z,12528.00
2022-10-29T07:45:13.387Z,12672.00
2022-10-29T07:50:20.618Z,12744.00
2022-10-29T07:55:30.918Z,12528.00
2022-10-29T08:00:34.986Z,12600.00
2022-10-29T08:05:42.971Z,12636.00
2022-10-29T08:10:49.372Z,13248.00
2022-10-29T08:15:56.583Z,13428.00
2022-10-29T08:21:03.848Z,13788.00
2022-10-29T08:26:11.025Z,14004.00
2022-10-29T08:31:18.254Z,14436.00
2022-10-29T08:36:25.551Z,14652.00
2022-10-29T08:41:32.686Z,15012.00
2022-10-29T08:46:39.877Z,15192.00
2022-10-29T08:51:47.092Z,15336.00
2022-10-29T08:56:54.267Z,16056.00
2022-10-29T09:02:01.552Z,16308.00
2022-10-29T09:07:08.712Z,15948.00
2022-10-29T09:12:15.889Z,15336.00
2022-10-29T09:17:23.133Z,15588.00
2022-10-29T09:22:30.367Z,15480.00
2022-10-29T09:27:37.553Z,15408.00
2022-10-29T09:32:44.849Z,15192.00
2022-10-29T09:37:51.993Z,14940.00
2022-10-29T09:42:59.180Z,15084.00
2022-10-29T09:48:06.424Z,14832.00
2022-10-29T09:53:13.671Z,15228.00
2022-10-29T09:58:20.913Z,15552.00
2022-10-29T10:03:28.145Z,15732.00
2022-10-29T10:08:35.483Z,15408.00
2022-10-29T10:13:42.662Z,15984.00
2022-10-29T10:18:49.880Z,16380.00
2022-10-29T10:23:57.137Z,16200.00
2022-10-29T10:29:04.775Z,16056.00
2022-10-29T10:34:11.970Z,16164.00
2022-10-29T10:39:19.336Z,16056.00
2022-10-29T10:44:26.492Z,16308.00
2022-10-29T10:49:33.748Z,16020.00
2022-10-29T10:54:41.098Z,15984.00
2022-10-29T10:59:48.177Z,15804.00
2022-10-29T11:04:55.385Z,15588.00
2022-10-29T11:10:02.590Z,15372.00
2022-10-29T11:15:09.927Z,15552.00
2022-10-29T11:20:17.196Z,15948.00
2022-10-29T11:25:24.489Z,15732.00
2022-10-29T11:30:31.525Z,15984.00
2022-10-29T11:35:38.792Z,16164.00
2022-10-29T11:40:45.972Z,15768.00
2022-10-29T11:45:53.190Z,15120.00
2022-10-29T11:51:00.401Z,15552.00
2022-10-29T11:56:07.677Z,15804.00
2022-10-29T12:01:14.947Z,15696.00
2022-10-29T12:06:22.328Z,15588.00
2022-10-29T12:11:29.592Z,15876.00
2022-10-29T12:16:36.872Z,16344.00
2022-10-29T12:21:44.121Z,16560.00
2022-10-29T12:26:51.312Z,18144.00
2022-10-29T12:31:58.516Z,16596.00
2022-10-29T12:37:05.815Z,16488.00
2022-10-29T12:42:13.053Z,16380.00
2022-10-29T12:47:20.219Z,16416.00
2022-10-29T12:52:27.374Z,16848.00
2022-10-29T12:57:34.548Z,16992.00
2022-10-29T13:02:41.894Z,17460.00
2022-10-29T13:07:48.922Z,17460.00
2022-10-29T13:12:56.166Z,17676.00
2022-10-29T13:18:03.337Z,17640.00
2022-10-29T13:23:10.860Z,17568.00
2022-10-29T13:28:17.930Z,17316.00
2022-10-29T13:33:25.275Z,17208.00
2022-10-29T13:38:32.582Z,17244.00
2022-10-29T13:43:39.798Z,17028.00
2022-10-29T13:48:46.978Z,16740.00
2022-10-29T13:53:54.179Z,15876.00
2022-10-29T13:59:01.426Z,15732.00
2022-10-29T14:04:08.638Z,15516.00
2022-10-29T14:09:15.794Z,15048.00
2022-10-29T14:14:23.074Z,14652.00
2022-10-29T14:19:30.233Z,14508.00
2022-10-29T14:24:37.413Z,14328.00
2022-10-29T14:29:44.639Z,14004.00
2022-10-29T14:34:51.865Z,13968.00
2022-10-29T14:39:59.428Z,13464.00
2022-10-29T14:45:06.293Z,12924.00
2022-10-29T14:50:13.511Z,12456.00
2022-10-29T14:55:20.770Z,11988.00
2022-10-29T15:00:27.970Z,11700.00
2022-10-29T15:05:35.159Z,11052.00
2022-10-29T15:10:42.677Z,10620.00
2022-10-29T15:15:49.996Z,10476.00
2022-10-29T15:20:57.206Z,10080.00
2022-10-29T15:26:04.412Z,7740.00
2022-10-29T15:31:11.623Z,9180.00
2022-10-29T15:36:18.801Z,7776.00
2022-10-29T15:41:26.047Z,4932.00
2022-10-29T15:46:33.269Z,3816.00
2022-10-29T15:51:40.725Z,2988.00
2022-10-29T15:56:47.962Z,2160.00
2022-10-29T16:01:55.320Z,1296.00
2022-10-29T16:07:02.332Z,468.00
2022-10-29T16:12:09.556Z,-72.00
2022-10-29T16:17:16.813Z,-432.00
2022-10-29T16:22:23.948Z,-648.00
2022-10-29T16:27:31.149Z,-792.00
2022-10-29T16:32:38.370Z,8820.00
2022-10-29T16:37:45.570Z,-864.00
2022-10-29T16:42:53.067Z,-936.00
2022-10-29T16:48:00.859Z,-972.00
2022-10-29T16:53:07.556Z,-936.00
2022-10-29T16:58:14.796Z,-936.00
2022-10-29T17:03:21.979Z,-936.00
2022-10-29T17:08:29.238Z,-972.00
2022-10-29T17:13:36.517Z,-972.00
2022-10-29T17:18:43.791Z,-972.00
2022-10-29T17:23:51.210Z,8748.00
2022-10-29T17:28:58.522Z,8568.00
2022-10-29T17:34:05.764Z,8532.00
2022-10-29T17:39:13.339Z,8028.00
2022-10-29T17:44:20.713Z,8496.00
2022-10-29T17:49:28.283Z,7992.00
2022-10-29T17:54:35.983Z,7920.00
2022-10-29T17:59:43.349Z,8100.00
2022-10-29T18:04:50.756Z,8604.00
2022-10-29T18:09:58.143Z,8100.00
2022-10-29T18:15:05.625Z,8064.00
2022-10-29T18:20:13.012Z,8064.00
2022-10-29T18:25:20.261Z,8316.00
2022-10-29T18:30:28.051Z,8208.00
2022-10-29T18:35:35.685Z,8208.00
2022-10-29T18:40:43.480Z,8208.00
2022-10-29T18:45:51.105Z,8352.00
2022-10-29T18:50:58.460Z,8496.00
2022-10-29T18:56:05.666Z,8100.00
2022-10-29T19:01:13.126Z,8280.00
2022-10-29T19:06:20.288Z,8028.00
2022-10-29T19:11:27.491Z,8064.00
2022-10-29T19:16:34.948Z,8424.00
2022-10-29T19:21:43.273Z,7992.00
2022-10-29T19:26:50.410Z,8028.00
2022-10-29T19:31:57.641Z,8136.00
2022-10-29T19:37:04.803Z,8208.00
2022-10-29T19:42:12.193Z,8136.00
2022-10-29T19:47:19.704Z,8100.00
2022-10-29T19:52:27.145Z,8136.00
2022-10-29T19:57:34.332Z,8136.00
2022-10-29T20:02:41.583Z,8064.00
2022-10-29T20:07:49.172Z,8028.00
2022-10-29T20:12:56.752Z,8244.00
2022-10-29T20:18:04.285Z,8172.00
2022-10-29T20:23:11.902Z,8100.00
2022-10-29T20:28:19.306Z,8064.00
2022-10-29T20:33:26.807Z,8172.00
2022-10-29T20:38:34.237Z,8820.00
2022-10-29T20:43:41.616Z,8748.00
2022-10-29T20:48:48.991Z,9252.00
2022-10-29T20:53:56.198Z,8928.00
2022-10-29T20:59:03.383Z,8208.00
2022-10-29T21:04:10.637Z,7848.00
2022-10-29T21:09:17.867Z,7884.00
2022-10-29T21:14:25.073Z,7920.00
2022-10-29T21:19:32.308Z,7920.00
2022-10-29T21:24:41.637Z,8172.00
2022-10-29T21:29:46.686Z,8172.00
2022-10-29T21:34:53.893Z,8244.00
2022-10-29T21:40:05.018Z,7992.00
2022-10-29T21:45:08.368Z,7884.00
2022-10-29T21:50:15.567Z,8244.00
2022-10-29T21:55:22.844Z,8136.00
2022-10-29T22:00:30.027Z,8244.00
2022-10-29T22:05:37.240Z,8172.00
2022-10-29T22:10:47.572Z,8208.00
2022-10-29T22:15:54.778Z,9144.00
2022-10-29T22:21:01.960Z,9108.00
2022-10-29T22:26:09.152Z,9180.00
2022-10-29T22:31:16.348Z,9072.00
2022-10-29T22:36:23.524Z,9000.00
2022-10-29T22:41:30.771Z,9000.00
2022-10-29T22:46:37.985Z,8640.00
2022-10-29T22:51:45.144Z,9000.00
2022-10-29T22:56:52.428Z,8784.00
2022-10-29T23:01:59.765Z,8604.00
2022-10-29T23:07:06.877Z,8604.00
2022-10-29T23:12:14.063Z,-1044.00
2022-10-29T23:17:21.236Z,-1008.00
2022-10-29T23:22:28.475Z,-1044.00
2022-10-29T23:27:35.696Z,-1008.00
2022-10-29T23:32:42.871Z,-1008.00
2022-10-29T23:37:50.098Z,-1044.00
2022-10-29T23:42:57.478Z,-1080.00
2022-10-29T23:48:04.687Z,-1008.00
2022-10-29T23:53:11.895Z,-1044.00
2022-10-29T23:58:19.164Z,-1008.00
